sensor_id;sensor_type;location;lat;lon;timestamp;P1;durP1;ratioP1;P2;durP2;ratioP2
4355;SDS011;64374;51.482;7.408;2022-12-08T00:00:09;22.87;;;12.33;;
4355;SDS011;64374;51.482;7.408;2022-12-08T00:02:38;21.47;;;12.00;;
4355;SDS011;64374;51.482;7.408;2022-12-08T00:05:10;21.60;;;13.60;;
4355;SDS011;64374;51.482;7.408;2022-12-08T00:07:57;19.07;;;14.13;;
4355;SDS011;64374;51.482;7.408;2022-12-08T00:10:45;19.43;;;12.63;;
4355;SDS011;64374;51.482;7.408;2022-12-08T00:13:15;18.27;;;13.30;;
4355;SDS011;64374;51.482;7.408;2022-12-08T00:15:48;16.97;;;13.27;;
4355;SDS011;64374;51.482;7.408;2022-12-08T00:18:17;21.37;;;13.70;;
4355;SDS011;64374;51.482;7.408;2022-12-08T00:20:45;24.00;;;14.87;;
4355;SDS011;64374;51.482;7.408;2022-12-08T00:23:21;22.10;;;13.83;;
4355;SDS011;64374;51.482;7.408;2022-12-08T00:25:50;25.57;;;14.30;;
4355;SDS011;64374;51.482;7.408;2022-12-08T00:28:18;30.37;;;18.27;;
4355;SDS011;64374;51.482;7.408;2022-12-08T00:30:48;29.17;;;18.20;;
4355;SDS011;64374;51.482;7.408;2022-12-08T00:33:17;29.03;;;19.77;;
4355;SDS011;64374;51.482;7.408;2022-12-08T00:35:44;24.23;;;17.63;;
4355;SDS011;64374;51.482;7.408;2022-12-08T00:38:13;25.50;;;16.87;;
4355;SDS011;64374;51.482;7.408;2022-12-08T00:40:46;33.03;;;19.30;;
4355;SDS011;64374;51.482;7.408;2022-12-08T00:43:15;27.83;;;18.50;;
4355;SDS011;64374;51.482;7.408;2022-12-08T00:45:43;32.37;;;19.50;;
4355;SDS011;64374;51.482;7.408;2022-12-08T00:48:13;32.23;;;19.30;;
4355;SDS011;64374;51.482;7.408;2022-12-08T00:50:45;32.17;;;20.33;;
4355;SDS011;64374;51.482;7.408;2022-12-08T00:53:13;29.40;;;18.93;;
4355;SDS011;64374;51.482;7.408;2022-12-08T00:55:41;27.47;;;17.97;;
4355;SDS011;64374;51.482;7.408;2022-12-08T00:58:10;31.70;;;20.00;;
4355;SDS011;64374;51.482;7.408;2022-12-08T01:00:39;31.20;;;20.60;;
4355;SDS011;64374;51.482;7.408;2022-12-08T01:03:13;24.47;;;17.63;;
4355;SDS011;64374;51.482;7.408;2022-12-08T01:05:44;32.73;;;18.90;;
4355;SDS011;64374;51.482;7.408;2022-12-08T01:08:12;26.73;;;17.67;;
4355;SDS011;64374;51.482;7.408;2022-12-08T01:10:41;27.93;;;17.63;;
4355;SDS011;64374;51.482;7.408;2022-12-08T01:13:09;33.60;;;20.10;;
4355;SDS011;64374;51.482;7.408;2022-12-08T01:15:38;25.00;;;17.53;;
4355;SDS011;64374;51.482;7.408;2022-12-08T01:18:06;29.00;;;16.30;;
4355;SDS011;64374;51.482;7.408;2022-12-08T01:20:36;23.37;;;16.47;;
4355;SDS011;64374;51.482;7.408;2022-12-08T01:23:05;26.90;;;17.10;;
4355;SDS011;64374;51.482;7.408;2022-12-08T01:25:33;24.90;;;16.90;;
4355;SDS011;64374;51.482;7.408;2022-12-08T01:28:04;24.87;;;17.70;;
4355;SDS011;64374;51.482;7.408;2022-12-08T01:30:32;21.77;;;15.60;;
4355;SDS011;64374;51.482;7.408;2022-12-08T01:33:01;28.30;;;17.10;;
4355;SDS011;64374;51.482;7.408;2022-12-08T01:35:29;29.23;;;16.47;;
4355;SDS011;64374;51.482;7.408;2022-12-08T01:37:58;24.23;;;15.60;;
4355;SDS011;64374;51.482;7.408;2022-12-08T01:40:35;23.87;;;16.90;;
4355;SDS011;64374;51.482;7.408;2022-12-08T01:43:07;21.03;;;13.60;;
4355;SDS011;64374;51.482;7.408;2022-12-08T01:45:40;22.20;;;16.20;;
4355;SDS011;64374;51.482;7.408;2022-12-08T01:48:17;23.83;;;15.50;;
4355;SDS011;64374;51.482;7.408;2022-12-08T01:50:48;21.17;;;15.63;;
4355;SDS011;64374;51.482;7.408;2022-12-08T01:53:20;17.27;;;14.00;;
4355;SDS011;64374;51.482;7.408;2022-12-08T01:55:53;21.67;;;14.47;;
4355;SDS011;64374;51.482;7.408;2022-12-08T01:58:29;26.53;;;14.70;;
4355;SDS011;64374;51.482;7.408;2022-12-08T02:01:02;21.33;;;14.33;;
4355;SDS011;64374;51.482;7.408;2022-12-08T02:03:33;21.80;;;14.37;;
4355;SDS011;64374;51.482;7.408;2022-12-08T02:06:08;22.20;;;14.87;;
4355;SDS011;64374;51.482;7.408;2022-12-08T02:08:41;29.67;;;16.47;;
4355;SDS011;64374;51.482;7.408;2022-12-08T02:11:10;22.17;;;15.33;;
4355;SDS011;64374;51.482;7.408;2022-12-08T02:13:39;31.53;;;16.87;;
4355;SDS011;64374;51.482;7.408;2022-12-08T02:16:11;17.03;;;12.90;;
4355;SDS011;64374;51.482;7.408;2022-12-08T02:18:55;21.50;;;14.40;;
4355;SDS011;64374;51.482;7.408;2022-12-08T02:21:57;23.90;;;14.97;;
4355;SDS011;64374;51.482;7.408;2022-12-08T02:24:30;26.67;;;17.03;;
4355;SDS011;64374;51.482;7.408;2022-12-08T02:27:10;26.80;;;15.70;;
4355;SDS011;64374;51.482;7.408;2022-12-08T02:30:07;24.40;;;16.13;;
4355;SDS011;64374;51.482;7.408;2022-12-08T02:32:57;27.70;;;16.70;;
4355;SDS011;64374;51.482;7.408;2022-12-08T02:35:52;30.20;;;16.93;;
4355;SDS011;64374;51.482;7.408;2022-12-08T02:38:28;23.83;;;17.20;;
4355;SDS011;64374;51.482;7.408;2022-12-08T02:41:09;28.00;;;17.23;;
4355;SDS011;64374;51.482;7.408;2022-12-08T02:43:46;23.87;;;17.17;;
4355;SDS011;64374;51.482;7.408;2022-12-08T02:46:18;27.70;;;17.73;;
4355;SDS011;64374;51.482;7.408;2022-12-08T02:48:51;25.70;;;16.80;;
4355;SDS011;64374;51.482;7.408;2022-12-08T02:51:21;29.17;;;17.83;;
4355;SDS011;64374;51.482;7.408;2022-12-08T02:53:52;24.60;;;16.67;;
4355;SDS011;64374;51.482;7.408;2022-12-08T02:56:27;29.90;;;16.97;;
4355;SDS011;64374;51.482;7.408;2022-12-08T02:59:09;32.67;;;18.70;;
4355;SDS011;64374;51.482;7.408;2022-12-08T03:01:57;28.73;;;18.20;;
4355;SDS011;64374;51.482;7.408;2022-12-08T03:04:37;28.30;;;18.10;;
4355;SDS011;64374;51.482;7.408;2022-12-08T03:07:21;23.83;;;16.30;;
4355;SDS011;64374;51.482;7.408;2022-12-08T03:09:59;28.63;;;17.07;;
4355;SDS011;64374;51.482;7.408;2022-12-08T03:12:33;27.40;;;17.50;;
4355;SDS011;64374;51.482;7.408;2022-12-08T03:15:08;30.30;;;16.00;;
4355;SDS011;64374;51.482;7.408;2022-12-08T03:17:40;23.00;;;15.27;;
4355;SDS011;64374;51.482;7.408;2022-12-08T03:20:12;25.90;;;17.20;;
4355;SDS011;64374;51.482;7.408;2022-12-08T03:22:45;24.77;;;16.10;;
4355;SDS011;64374;51.482;7.408;2022-12-08T03:25:20;26.87;;;17.60;;
4355;SDS011;64374;51.482;7.408;2022-12-08T03:27:52;30.10;;;16.90;;
4355;SDS011;64374;51.482;7.408;2022-12-08T03:30:21;30.83;;;17.93;;
4355;SDS011;64374;51.482;7.408;2022-12-08T03:32:59;26.23;;;16.50;;
4355;SDS011;64374;51.482;7.408;2022-12-08T03:35:32;31.53;;;16.10;;
4355;SDS011;64374;51.482;7.408;2022-12-08T03:38:06;27.07;;;16.10;;
4355;SDS011;64374;51.482;7.408;2022-12-08T03:40:36;27.60;;;15.90;;
4355;SDS011;64374;51.482;7.408;2022-12-08T03:43:07;23.17;;;15.13;;
4355;SDS011;64374;51.482;7.408;2022-12-08T03:45:36;29.00;;;16.97;;
4355;SDS011;64374;51.482;7.408;2022-12-08T03:48:05;30.97;;;17.50;;
4355;SDS011;64374;51.482;7.408;2022-12-08T03:50:33;28.63;;;15.67;;
4355;SDS011;64374;51.482;7.408;2022-12-08T03:53:01;24.70;;;16.03;;
4355;SDS011;64374;51.482;7.408;2022-12-08T03:55:31;24.93;;;15.60;;
4355;SDS011;64374;51.482;7.408;2022-12-08T03:58:00;30.43;;;17.20;;
4355;SDS011;64374;51.482;7.408;2022-12-08T04:00:28;28.10;;;17.20;;
4355;SDS011;64374;51.482;7.408;2022-12-08T04:02:57;25.90;;;16.93;;
4355;SDS011;64374;51.482;7.408;2022-12-08T04:05:26;29.10;;;15.33;;
4355;SDS011;64374;51.482;7.408;2022-12-08T04:07:55;23.60;;;16.23;;
4355;SDS011;64374;51.482;7.408;2022-12-08T04:10:27;33.57;;;16.30;;
4355;SDS011;64374;51.482;7.408;2022-12-08T04:12:57;24.50;;;16.47;;
4355;SDS011;64374;51.482;7.408;2022-12-08T04:15:25;20.37;;;13.57;;
4355;SDS011;64374;51.482;7.408;2022-12-08T04:17:54;23.77;;;14.60;;
4355;SDS011;64374;51.482;7.408;2022-12-08T04:20:22;25.13;;;15.33;;
4355;SDS011;64374;51.482;7.408;2022-12-08T04:22:51;29.30;;;16.90;;
4355;SDS011;64374;51.482;7.408;2022-12-08T04:25:19;24.53;;;15.10;;
4355;SDS011;64374;51.482;7.408;2022-12-08T04:27:47;26.97;;;15.50;;
4355;SDS011;64374;51.482;7.408;2022-12-08T04:30:19;23.50;;;15.27;;
4355;SDS011;64374;51.482;7.408;2022-12-08T04:32:48;25.60;;;14.80;;
4355;SDS011;64374;51.482;7.408;2022-12-08T04:35:20;20.30;;;13.00;;
4355;SDS011;64374;51.482;7.408;2022-12-08T04:37:48;28.60;;;14.80;;
4355;SDS011;64374;51.482;7.408;2022-12-08T04:40:17;24.73;;;15.13;;
4355;SDS011;64374;51.482;7.408;2022-12-08T04:42:48;20.90;;;14.13;;
4355;SDS011;64374;51.482;7.408;2022-12-08T04:45:18;22.43;;;14.20;;
4355;SDS011;64374;51.482;7.408;2022-12-08T04:47:46;22.07;;;13.63;;
4355;SDS011;64374;51.482;7.408;2022-12-08T04:50:15;25.40;;;14.60;;
4355;SDS011;64374;51.482;7.408;2022-12-08T04:52:48;22.50;;;13.30;;
4355;SDS011;64374;51.482;7.408;2022-12-08T04:55:19;27.70;;;15.50;;
4355;SDS011;64374;51.482;7.408;2022-12-08T04:57:56;21.43;;;13.67;;
4355;SDS011;64374;51.482;7.408;2022-12-08T05:00:25;18.07;;;13.17;;
4355;SDS011;64374;51.482;7.408;2022-12-08T05:02:54;23.87;;;13.60;;
4355;SDS011;64374;51.482;7.408;2022-12-08T05:05:22;22.57;;;12.90;;
4355;SDS011;64374;51.482;7.408;2022-12-08T05:07:51;20.00;;;12.43;;
4355;SDS011;64374;51.482;7.408;2022-12-08T05:10:20;19.30;;;11.97;;
4355;SDS011;64374;51.482;7.408;2022-12-08T05:12:48;19.93;;;11.20;;
4355;SDS011;64374;51.482;7.408;2022-12-08T05:15:17;17.93;;;11.63;;
4355;SDS011;64374;51.482;7.408;2022-12-08T05:17:47;18.10;;;11.43;;
4355;SDS011;64374;51.482;7.408;2022-12-08T05:20:15;17.63;;;9.90;;
4355;SDS011;64374;51.482;7.408;2022-12-08T05:22:44;16.27;;;10.87;;
4355;SDS011;64374;51.482;7.408;2022-12-08T05:25:13;15.83;;;10.67;;
4355;SDS011;64374;51.482;7.408;2022-12-08T05:27:42;15.57;;;10.10;;
4355;SDS011;64374;51.482;7.408;2022-12-08T05:30:10;15.87;;;9.80;;
4355;SDS011;64374;51.482;7.408;2022-12-08T05:32:39;13.03;;;9.97;;
4355;SDS011;64374;51.482;7.408;2022-12-08T05:35:16;15.67;;;10.30;;
4355;SDS011;64374;51.482;7.408;2022-12-08T05:37:45;13.10;;;9.60;;
4355;SDS011;64374;51.482;7.408;2022-12-08T05:40:14;15.70;;;9.60;;
4355;SDS011;64374;51.482;7.408;2022-12-08T05:42:42;17.30;;;11.03;;
4355;SDS011;64374;51.482;7.408;2022-12-08T05:45:11;19.80;;;11.13;;
4355;SDS011;64374;51.482;7.408;2022-12-08T05:47:40;13.70;;;9.80;;
4355;SDS011;64374;51.482;7.408;2022-12-08T05:50:12;14.90;;;10.30;;
4355;SDS011;64374;51.482;7.408;2022-12-08T05:52:40;22.50;;;9.73;;
4355;SDS011;64374;51.482;7.408;2022-12-08T05:55:08;15.47;;;10.30;;
4355;SDS011;64374;51.482;7.408;2022-12-08T05:57:36;19.33;;;10.70;;
4355;SDS011;64374;51.482;7.408;2022-12-08T06:00:05;18.00;;;10.13;;
4355;SDS011;64374;51.482;7.408;2022-12-08T06:02:38;16.57;;;10.23;;
4355;SDS011;64374;51.482;7.408;2022-12-08T06:05:07;14.30;;;10.37;;
4355;SDS011;64374;51.482;7.408;2022-12-08T06:07:39;14.07;;;9.50;;
4355;SDS011;64374;51.482;7.408;2022-12-08T06:10:08;16.73;;;10.90;;
4355;SDS011;64374;51.482;7.408;2022-12-08T06:12:36;15.80;;;10.80;;
4355;SDS011;64374;51.482;7.408;2022-12-08T06:15:06;18.40;;;11.80;;
4355;SDS011;64374;51.482;7.408;2022-12-08T06:17:34;19.27;;;11.13;;
4355;SDS011;64374;51.482;7.408;2022-12-08T06:20:03;15.17;;;10.97;;
4355;SDS011;64374;51.482;7.408;2022-12-08T06:22:32;19.63;;;12.13;;
4355;SDS011;64374;51.482;7.408;2022-12-08T06:25:03;17.23;;;13.23;;
4355;SDS011;64374;51.482;7.408;2022-12-08T06:27:36;22.53;;;13.60;;
4355;SDS011;64374;51.482;7.408;2022-12-08T06:30:05;17.27;;;11.13;;
4355;SDS011;64374;51.482;7.408;2022-12-08T06:32:34;19.43;;;12.10;;
4355;SDS011;64374;51.482;7.408;2022-12-08T06:35:11;14.57;;;10.80;;
4355;SDS011;64374;51.482;7.408;2022-12-08T06:37:42;19.07;;;12.20;;
4355;SDS011;64374;51.482;7.408;2022-12-08T06:40:12;18.20;;;12.10;;
4355;SDS011;64374;51.482;7.408;2022-12-08T06:42:42;21.17;;;12.30;;
4355;SDS011;64374;51.482;7.408;2022-12-08T06:45:13;19.20;;;12.50;;
4355;SDS011;64374;51.482;7.408;2022-12-08T06:47:42;21.03;;;13.97;;
4355;SDS011;64374;51.482;7.408;2022-12-08T06:50:12;21.73;;;11.87;;
4355;SDS011;64374;51.482;7.408;2022-12-08T06:52:40;17.13;;;11.37;;
4355;SDS011;64374;51.482;7.408;2022-12-08T06:55:25;16.33;;;11.80;;
4355;SDS011;64374;51.482;7.408;2022-12-08T06:58:15;14.03;;;9.70;;
4355;SDS011;64374;51.482;7.408;2022-12-08T07:00:43;17.57;;;10.30;;
4355;SDS011;64374;51.482;7.408;2022-12-08T07:03:12;14.13;;;9.30;;
4355;SDS011;64374;51.482;7.408;2022-12-08T07:05:41;12.70;;;8.57;;
4355;SDS011;64374;51.482;7.408;2022-12-08T07:08:09;11.20;;;7.40;;
4355;SDS011;64374;51.482;7.408;2022-12-08T07:10:39;13.73;;;8.70;;
4355;SDS011;64374;51.482;7.408;2022-12-08T07:13:07;13.80;;;9.53;;
4355;SDS011;64374;51.482;7.408;2022-12-08T07:15:35;14.50;;;9.70;;
4355;SDS011;64374;51.482;7.408;2022-12-08T07:18:07;14.73;;;8.70;;
4355;SDS011;64374;51.482;7.408;2022-12-08T07:20:35;17.47;;;11.10;;
4355;SDS011;64374;51.482;7.408;2022-12-08T07:23:03;13.50;;;9.97;;
4355;SDS011;64374;51.482;7.408;2022-12-08T07:25:32;12.43;;;9.67;;
4355;SDS011;64374;51.482;7.408;2022-12-08T07:28:01;18.13;;;11.10;;
4355;SDS011;64374;51.482;7.408;2022-12-08T07:30:35;16.67;;;11.13;;
4355;SDS011;64374;51.482;7.408;2022-12-08T07:33:04;11.73;;;9.30;;
4355;SDS011;64374;51.482;7.408;2022-12-08T07:35:32;15.33;;;10.60;;
4355;SDS011;64374;51.482;7.408;2022-12-08T07:38:00;16.80;;;10.53;;
4355;SDS011;64374;51.482;7.408;2022-12-08T07:40:29;15.00;;;10.40;;
4355;SDS011;64374;51.482;7.408;2022-12-08T07:42:57;15.80;;;9.93;;
4355;SDS011;64374;51.482;7.408;2022-12-08T07:45:27;13.50;;;9.67;;
4355;SDS011;64374;51.482;7.408;2022-12-08T07:47:57;16.23;;;10.13;;
4355;SDS011;64374;51.482;7.408;2022-12-08T07:50:25;15.97;;;10.50;;
4355;SDS011;64374;51.482;7.408;2022-12-08T07:52:53;14.97;;;9.10;;
4355;SDS011;64374;51.482;7.408;2022-12-08T07:55:22;12.03;;;9.00;;
4355;SDS011;64374;51.482;7.408;2022-12-08T07:57:51;13.90;;;9.60;;
4355;SDS011;64374;51.482;7.408;2022-12-08T08:00:20;14.53;;;9.87;;
4355;SDS011;64374;51.482;7.408;2022-12-08T08:02:52;14.70;;;9.93;;
4355;SDS011;64374;51.482;7.408;2022-12-08T08:05:21;14.53;;;9.10;;
4355;SDS011;64374;51.482;7.408;2022-12-08T08:07:49;14.20;;;9.97;;
4355;SDS011;64374;51.482;7.408;2022-12-08T08:10:20;14.40;;;9.43;;
4355;SDS011;64374;51.482;7.408;2022-12-08T08:12:49;16.20;;;10.33;;
4355;SDS011;64374;51.482;7.408;2022-12-08T08:15:17;13.40;;;10.10;;
4355;SDS011;64374;51.482;7.408;2022-12-08T08:17:48;12.10;;;8.50;;
4355;SDS011;64374;51.482;7.408;2022-12-08T08:20:19;16.47;;;11.57;;
4355;SDS011;64374;51.482;7.408;2022-12-08T08:22:50;12.70;;;9.57;;
4355;SDS011;64374;51.482;7.408;2022-12-08T08:25:21;12.93;;;9.47;;
4355;SDS011;64374;51.482;7.408;2022-12-08T08:27:49;14.80;;;10.60;;
4355;SDS011;64374;51.482;7.408;2022-12-08T08:30:17;13.53;;;9.70;;
4355;SDS011;64374;51.482;7.408;2022-12-08T08:32:46;17.33;;;10.30;;
4355;SDS011;64374;51.482;7.408;2022-12-08T08:35:17;13.30;;;8.37;;
4355;SDS011;64374;51.482;7.408;2022-12-08T08:37:48;12.37;;;8.90;;
4355;SDS011;64374;51.482;7.408;2022-12-08T08:40:16;11.57;;;8.57;;
4355;SDS011;64374;51.482;7.408;2022-12-08T08:42:45;12.77;;;8.60;;
4355;SDS011;64374;51.482;7.408;2022-12-08T08:45:16;10.67;;;7.97;;
4355;SDS011;64374;51.482;7.408;2022-12-08T08:47:45;12.10;;;8.60;;
4355;SDS011;64374;51.482;7.408;2022-12-08T08:50:13;13.53;;;8.77;;
4355;SDS011;64374;51.482;7.408;2022-12-08T08:52:44;11.57;;;9.73;;
4355;SDS011;64374;51.482;7.408;2022-12-08T08:55:14;13.60;;;10.10;;
4355;SDS011;64374;51.482;7.408;2022-12-08T08:57:43;14.23;;;9.80;;
4355;SDS011;64374;51.482;7.408;2022-12-08T09:00:12;13.13;;;9.00;;
4355;SDS011;64374;51.482;7.408;2022-12-08T09:02:45;13.33;;;9.23;;
4355;SDS011;64374;51.482;7.408;2022-12-08T09:05:13;14.37;;;8.13;;
4355;SDS011;64374;51.482;7.408;2022-12-08T09:07:42;13.20;;;9.73;;
4355;SDS011;64374;51.482;7.408;2022-12-08T09:10:12;13.00;;;9.07;;
4355;SDS011;64374;51.482;7.408;2022-12-08T09:12:44;14.20;;;9.43;;
4355;SDS011;64374;51.482;7.408;2022-12-08T09:15:15;12.60;;;9.30;;
4355;SDS011;64374;51.482;7.408;2022-12-08T09:17:46;11.33;;;8.77;;
4355;SDS011;64374;51.482;7.408;2022-12-08T09:20:14;12.17;;;9.80;;
4355;SDS011;64374;51.482;7.408;2022-12-08T09:22:42;11.53;;;8.57;;
4355;SDS011;64374;51.482;7.408;2022-12-08T09:25:12;10.90;;;9.07;;
4355;SDS011;64374;51.482;7.408;2022-12-08T09:27:40;9.93;;;7.40;;
4355;SDS011;64374;51.482;7.408;2022-12-08T09:30:08;11.93;;;8.03;;
4355;SDS011;64374;51.482;7.408;2022-12-08T09:32:37;14.50;;;9.10;;
4355;SDS011;64374;51.482;7.408;2022-12-08T09:35:07;12.30;;;8.10;;
4355;SDS011;64374;51.482;7.408;2022-12-08T09:37:36;9.83;;;7.67;;
4355;SDS011;64374;51.482;7.408;2022-12-08T09:40:05;10.40;;;8.10;;
4355;SDS011;64374;51.482;7.408;2022-12-08T09:42:37;11.23;;;8.00;;
4355;SDS011;64374;51.482;7.408;2022-12-08T09:45:14;12.40;;;8.60;;
4355;SDS011;64374;51.482;7.408;2022-12-08T09:47:57;13.70;;;7.93;;
4355;SDS011;64374;51.482;7.408;2022-12-08T09:50:37;10.73;;;7.60;;
4355;SDS011;64374;51.482;7.408;2022-12-08T09:53:12;10.50;;;7.37;;
4355;SDS011;64374;51.482;7.408;2022-12-08T09:55:43;12.00;;;8.10;;
4355;SDS011;64374;51.482;7.408;2022-12-08T09:58:19;11.67;;;8.83;;
4355;SDS011;64374;51.482;7.408;2022-12-08T10:00:54;10.10;;;8.00;;
4355;SDS011;64374;51.482;7.408;2022-12-08T10:03:24;8.40;;;7.03;;
4355;SDS011;64374;51.482;7.408;2022-12-08T10:05:56;11.03;;;8.50;;
4355;SDS011;64374;51.482;7.408;2022-12-08T10:08:32;8.90;;;7.73;;
4355;SDS011;64374;51.482;7.408;2022-12-08T10:11:10;10.73;;;7.43;;
4355;SDS011;64374;51.482;7.408;2022-12-08T10:13:44;11.63;;;8.47;;
4355;SDS011;64374;51.482;7.408;2022-12-08T10:16:21;14.23;;;7.40;;
4355;SDS011;64374;51.482;7.408;2022-12-08T10:18:56;10.00;;;7.57;;
4355;SDS011;64374;51.482;7.408;2022-12-08T10:21:29;9.87;;;8.20;;
4355;SDS011;64374;51.482;7.408;2022-12-08T10:24:00;10.83;;;7.37;;
4355;SDS011;64374;51.482;7.408;2022-12-08T10:26:35;10.73;;;8.00;;
4355;SDS011;64374;51.482;7.408;2022-12-08T10:29:05;11.47;;;8.00;;
4355;SDS011;64374;51.482;7.408;2022-12-08T10:31:36;11.70;;;7.93;;
4355;SDS011;64374;51.482;7.408;2022-12-08T10:34:21;12.00;;;7.13;;
4355;SDS011;64374;51.482;7.408;2022-12-08T10:36:51;12.03;;;8.30;;
4355;SDS011;64374;51.482;7.408;2022-12-08T10:42:20;12.17;;;8.57;;
4355;SDS011;64374;51.482;7.408;2022-12-08T10:44:53;10.50;;;7.60;;
4355;SDS011;64374;51.482;7.408;2022-12-08T10:47:29;13.93;;;8.97;;
4355;SDS011;64374;51.482;7.408;2022-12-08T10:50:17;12.87;;;8.83;;
4355;SDS011;64374;51.482;7.408;2022-12-08T10:52:52;12.67;;;8.50;;
4355;SDS011;64374;51.482;7.408;2022-12-08T10:55:23;14.57;;;8.70;;
4355;SDS011;64374;51.482;7.408;2022-12-08T10:57:52;13.07;;;9.00;;
4355;SDS011;64374;51.482;7.408;2022-12-08T11:00:22;14.63;;;9.47;;
4355;SDS011;64374;51.482;7.408;2022-12-08T11:02:54;12.50;;;8.83;;
4355;SDS011;64374;51.482;7.408;2022-12-08T11:05:28;10.50;;;7.97;;
4355;SDS011;64374;51.482;7.408;2022-12-08T11:08:02;14.33;;;8.23;;
4355;SDS011;64374;51.482;7.408;2022-12-08T11:10:33;11.40;;;8.00;;
4355;SDS011;64374;51.482;7.408;2022-12-08T11:13:04;12.57;;;8.97;;
4355;SDS011;64374;51.482;7.408;2022-12-08T11:15:39;12.60;;;10.00;;
4355;SDS011;64374;51.482;7.408;2022-12-08T11:18:19;13.97;;;9.53;;
4355;SDS011;64374;51.482;7.408;2022-12-08T11:20:55;15.03;;;8.90;;
4355;SDS011;64374;51.482;7.408;2022-12-08T11:23:26;14.47;;;10.10;;
4355;SDS011;64374;51.482;7.408;2022-12-08T11:25:57;11.50;;;8.63;;
4355;SDS011;64374;51.482;7.408;2022-12-08T11:28:31;13.23;;;9.00;;
4355;SDS011;64374;51.482;7.408;2022-12-08T11:31:10;17.00;;;9.13;;
4355;SDS011;64374;51.482;7.408;2022-12-08T11:33:49;12.60;;;9.00;;
4355;SDS011;64374;51.482;7.408;2022-12-08T11:36:19;15.60;;;9.10;;
4355;SDS011;64374;51.482;7.408;2022-12-08T11:38:50;10.67;;;8.00;;
4355;SDS011;64374;51.482;7.408;2022-12-08T11:41:24;11.20;;;7.70;;
4355;SDS011;64374;51.482;7.408;2022-12-08T11:43:58;12.90;;;7.53;;
4355;SDS011;64374;51.482;7.408;2022-12-08T11:46:35;12.10;;;8.10;;
4355;SDS011;64374;51.482;7.408;2022-12-08T11:49:11;10.73;;;8.30;;
4355;SDS011;64374;51.482;7.408;2022-12-08T11:51:42;11.03;;;7.97;;
4355;SDS011;64374;51.482;7.408;2022-12-08T11:54:16;10.27;;;7.60;;
4355;SDS011;64374;51.482;7.408;2022-12-08T11:56:50;10.40;;;6.90;;
4355;SDS011;64374;51.482;7.408;2022-12-08T11:59:22;10.93;;;8.70;;
4355;SDS011;64374;51.482;7.408;2022-12-08T12:01:59;12.33;;;8.30;;
4355;SDS011;64374;51.482;7.408;2022-12-08T12:04:30;11.03;;;8.50;;
4355;SDS011;64374;51.482;7.408;2022-12-08T12:07:18;12.83;;;8.47;;
4355;SDS011;64374;51.482;7.408;2022-12-08T12:10:21;11.00;;;8.70;;
4355;SDS011;64374;51.482;7.408;2022-12-08T12:13:04;12.87;;;9.10;;
4355;SDS011;64374;51.482;7.408;2022-12-08T12:18:38;12.17;;;9.27;;
4355;SDS011;64374;51.482;7.408;2022-12-08T12:21:12;12.10;;;8.83;;
4355;SDS011;64374;51.482;7.408;2022-12-08T12:23:46;10.03;;;8.30;;
4355;SDS011;64374;51.482;7.408;2022-12-08T12:26:20;8.90;;;7.37;;
4355;SDS011;64374;51.482;7.408;2022-12-08T12:28:51;12.17;;;9.30;;
4355;SDS011;64374;51.482;7.408;2022-12-08T12:31:24;10.53;;;8.40;;
4355;SDS011;64374;51.482;7.408;2022-12-08T12:34:04;11.10;;;8.70;;
4355;SDS011;64374;51.482;7.408;2022-12-08T12:36:50;13.07;;;9.90;;
4355;SDS011;64374;51.482;7.408;2022-12-08T12:39:25;10.07;;;7.83;;
4355;SDS011;64374;51.482;7.408;2022-12-08T12:41:56;10.50;;;7.77;;
4355;SDS011;64374;51.482;7.408;2022-12-08T12:47:14;8.20;;;6.90;;
4355;SDS011;64374;51.482;7.408;2022-12-08T13:02:18;9.80;;;7.20;;
4355;SDS011;64374;51.482;7.408;2022-12-08T13:04:54;8.67;;;7.57;;
4355;SDS011;64374;51.482;7.408;2022-12-08T13:07:28;8.70;;;7.47;;
4355;SDS011;64374;51.482;7.408;2022-12-08T13:09:59;12.57;;;6.80;;
4355;SDS011;64374;51.482;7.408;2022-12-08T13:12:31;9.77;;;7.20;;
4355;SDS011;64374;51.482;7.408;2022-12-08T13:15:01;9.13;;;7.30;;
4355;SDS011;64374;51.482;7.408;2022-12-08T13:17:32;11.07;;;7.93;;
4355;SDS011;64374;51.482;7.408;2022-12-08T13:20:05;10.83;;;7.90;;
4355;SDS011;64374;51.482;7.408;2022-12-08T13:22:49;7.10;;;6.40;;
4355;SDS011;64374;51.482;7.408;2022-12-08T13:28:19;9.30;;;7.20;;
4355;SDS011;64374;51.482;7.408;2022-12-08T13:30:51;9.43;;;7.83;;
4355;SDS011;64374;51.482;7.408;2022-12-08T13:33:22;10.37;;;7.90;;
4355;SDS011;64374;51.482;7.408;2022-12-08T13:35:55;8.93;;;7.37;;
4355;SDS011;64374;51.482;7.408;2022-12-08T13:38:32;11.03;;;7.90;;
4355;SDS011;64374;51.482;7.408;2022-12-08T13:41:06;10.73;;;8.73;;
4355;SDS011;64374;51.482;7.408;2022-12-08T13:43:41;9.77;;;7.47;;
4355;SDS011;64374;51.482;7.408;2022-12-08T13:46:35;11.80;;;9.07;;
4355;SDS011;64374;51.482;7.408;2022-12-08T13:49:29;13.90;;;9.23;;
4355;SDS011;64374;51.482;7.408;2022-12-08T13:52:26;15.63;;;10.60;;
4355;SDS011;64374;51.482;7.408;2022-12-08T13:55:20;13.03;;;9.10;;
4355;SDS011;64374;51.482;7.408;2022-12-08T13:58:17;10.47;;;7.80;;
4355;SDS011;64374;51.482;7.408;2022-12-08T14:00:55;12.33;;;9.37;;
4355;SDS011;64374;51.482;7.408;2022-12-08T14:03:27;15.80;;;10.20;;
4355;SDS011;64374;51.482;7.408;2022-12-08T14:05:55;15.37;;;10.47;;
4355;SDS011;64374;51.482;7.408;2022-12-08T14:08:39;12.10;;;7.40;;
4355;SDS011;64374;51.482;7.408;2022-12-08T14:11:30;14.50;;;9.77;;
4355;SDS011;64374;51.482;7.408;2022-12-08T14:14:03;14.67;;;9.50;;
4355;SDS011;64374;51.482;7.408;2022-12-08T14:16:36;13.60;;;9.63;;
4355;SDS011;64374;51.482;7.408;2022-12-08T14:19:13;13.90;;;10.73;;
4355;SDS011;64374;51.482;7.408;2022-12-08T14:21:50;18.10;;;11.40;;
4355;SDS011;64374;51.482;7.408;2022-12-08T14:24:23;14.10;;;9.53;;
4355;SDS011;64374;51.482;7.408;2022-12-08T14:26:54;18.17;;;12.60;;
4355;SDS011;64374;51.482;7.408;2022-12-08T14:29:31;15.27;;;11.60;;
4355;SDS011;64374;51.482;7.408;2022-12-08T14:32:18;16.93;;;12.60;;
4355;SDS011;64374;51.482;7.408;2022-12-08T14:35:00;13.63;;;11.43;;
4355;SDS011;64374;51.482;7.408;2022-12-08T14:37:40;15.63;;;11.10;;
4355;SDS011;64374;51.482;7.408;2022-12-08T14:40:17;16.97;;;11.47;;
4355;SDS011;64374;51.482;7.408;2022-12-08T14:42:52;14.20;;;10.27;;
4355;SDS011;64374;51.482;7.408;2022-12-08T14:45:33;15.90;;;10.80;;
4355;SDS011;64374;51.482;7.408;2022-12-08T14:48:18;19.03;;;12.67;;
4355;SDS011;64374;51.482;7.408;2022-12-08T14:53:42;14.07;;;10.57;;
4355;SDS011;64374;51.482;7.408;2022-12-08T14:56:16;14.70;;;11.37;;
4355;SDS011;64374;51.482;7.408;2022-12-08T14:59:00;16.97;;;12.10;;
4355;SDS011;64374;51.482;7.408;2022-12-08T15:01:31;14.00;;;10.73;;
4355;SDS011;64374;51.482;7.408;2022-12-08T15:04:02;11.90;;;9.10;;
4355;SDS011;64374;51.482;7.408;2022-12-08T15:06:43;17.07;;;10.80;;
4355;SDS011;64374;51.482;7.408;2022-12-08T15:09:14;15.50;;;10.23;;
4355;SDS011;64374;51.482;7.408;2022-12-08T15:11:44;15.60;;;11.10;;
4355;SDS011;64374;51.482;7.408;2022-12-08T15:14:26;16.20;;;10.13;;
4355;SDS011;64374;51.482;7.408;2022-12-08T15:16:57;19.97;;;10.57;;
4355;SDS011;64374;51.482;7.408;2022-12-08T15:19:26;14.83;;;11.07;;
4355;SDS011;64374;51.482;7.408;2022-12-08T15:21:57;20.73;;;12.80;;
4355;SDS011;64374;51.482;7.408;2022-12-08T15:24:28;21.33;;;13.00;;
4355;SDS011;64374;51.482;7.408;2022-12-08T15:26:57;16.10;;;11.67;;
4355;SDS011;64374;51.482;7.408;2022-12-08T15:29:27;18.77;;;11.73;;
4355;SDS011;64374;51.482;7.408;2022-12-08T15:31:58;17.53;;;11.50;;
4355;SDS011;64374;51.482;7.408;2022-12-08T15:34:28;16.23;;;11.93;;
4355;SDS011;64374;51.482;7.408;2022-12-08T15:36:57;17.80;;;13.37;;
4355;SDS011;64374;51.482;7.408;2022-12-08T15:39:28;25.40;;;13.93;;